sensor_id;sensor_type;location;lat;lon;timestamp;temperature;humidity
30534;DHT22;17318;52.390;9.754;2022-10-31T00:01:23;16.90;99.90
30534;DHT22;17318;52.390;9.754;2022-10-31T00:03:49;17.00;99.90
30534;DHT22;17318;52.390;9.754;2022-10-31T00:06:15;17.00;99.90
30534;DHT22;17318;52.390;9.754;2022-10-31T00:08:44;17.00;99.90
30534;DHT22;17318;52.390;9.754;2022-10-31T00:11:10;17.00;99.90
30534;DHT22;17318;52.390;9.754;2022-10-31T00:13:36;17.00;99.90
30534;DHT22;17318;52.390;9.754;2022-10-31T00:16:02;17.00;99.90
30534;DHT22;17318;52.390;9.754;2022-10-31T00:18:27;16.90;99.90
30534;DHT22;17318;52.390;9.754;2022-10-31T00:21:03;16.90;99.90
30534;DHT22;17318;52.390;9.754;2022-10-31T00:23:29;16.90;99.90
30534;DHT22;17318;52.390;9.754;2022-10-31T00:26:03;16.90;99.90
30534;DHT22;17318;52.390;9.754;2022-10-31T00:28:29;16.90;99.90
30534;DHT22;17318;52.390;9.754;2022-10-31T00:31:02;16.90;99.90
30534;DHT22;17318;52.390;9.754;2022-10-31T00:33:28;16.90;99.90
30534;DHT22;17318;52.390;9.754;2022-10-31T00:35:54;16.90;99.90
30534;DHT22;17318;52.390;9.754;2022-10-31T00:38:20;16.90;99.90
30534;DHT22;17318;52.390;9.754;2022-10-31T00:40:46;17.00;99.80
30534;DHT22;17318;52.390;9.754;2022-10-31T00:43:11;17.00;99.80
30534;DHT22;17318;52.390;9.754;2022-10-31T00:45:37;17.00;99.90
30534;DHT22;17318;52.390;9.754;2022-10-31T00:48:03;17.00;99.80
30534;DHT22;17318;52.390;9.754;2022-10-31T00:50:29;17.00;99.90
30534;DHT22;17318;52.390;9.754;2022-10-31T00:52:54;17.00;99.90
30534;DHT22;17318;52.390;9.754;2022-10-31T00:55:20;17.00;99.90
30534;DHT22;17318;52.390;9.754;2022-10-31T00:57:46;17.00;99.90
30534;DHT22;17318;52.390;9.754;2022-10-31T01:00:13;17.00;99.90
30534;DHT22;17318;52.390;9.754;2022-10-31T01:02:39;17.00;99.90
30534;DHT22;17318;52.390;9.754;2022-10-31T01:05:04;17.00;99.90
30534;DHT22;17318;52.390;9.754;2022-10-31T01:07:30;17.00;99.90
30534;DHT22;17318;52.390;9.754;2022-10-31T01:09:56;17.00;99.90
30534;DHT22;17318;52.390;9.754;2022-10-31T01:12:21;16.90;99.90
30534;DHT22;17318;52.390;9.754;2022-10-31T01:14:47;16.90;99.90
30534;DHT22;17318;52.390;9.754;2022-10-31T01:17:13;16.90;99.90
30534;DHT22;17318;52.390;9.754;2022-10-31T01:19:39;17.00;99.90
30534;DHT22;17318;52.390;9.754;2022-10-31T01:22:05;16.90;99.90
30534;DHT22;17318;52.390;9.754;2022-10-31T01:24:31;16.80;99.90
30534;DHT22;17318;52.390;9.754;2022-10-31T01:26:57;16.80;99.90
30534;DHT22;17318;52.390;9.754;2022-10-31T01:29:22;16.80;99.90
30534;DHT22;17318;52.390;9.754;2022-10-31T01:31:48;16.80;99.90
30534;DHT22;17318;52.390;9.754;2022-10-31T01:34:16;16.80;99.90
30534;DHT22;17318;52.390;9.754;2022-10-31T01:36:45;16.80;99.90
30534;DHT22;17318;52.390;9.754;2022-10-31T01:39:17;16.80;99.90
30534;DHT22;17318;52.390;9.754;2022-10-31T01:41:45;16.70;99.90
30534;DHT22;17318;52.390;9.754;2022-10-31T01:46:54;16.80;99.90
30534;DHT22;17318;52.390;9.754;2022-10-31T01:49:28;16.80;99.90
30534;DHT22;17318;52.390;9.754;2022-10-31T01:52:00;16.80;99.90
30534;DHT22;17318;52.390;9.754;2022-10-31T01:54:30;16.80;99.90
30534;DHT22;17318;52.390;9.754;2022-10-31T01:56:58;16.80;99.90
30534;DHT22;17318;52.390;9.754;2022-10-31T01:59:27;16.90;99.90
30534;DHT22;17318;52.390;9.754;2022-10-31T02:01:54;16.80;99.90
30534;DHT22;17318;52.390;9.754;2022-10-31T02:04:21;16.80;99.90
30534;DHT22;17318;52.390;9.754;2022-10-31T02:07:16;16.80;99.90
30534;DHT22;17318;52.390;9.754;2022-10-31T02:09:45;16.80;99.90
30534;DHT22;17318;52.390;9.754;2022-10-31T02:12:11;16.80;99.90
30534;DHT22;17318;52.390;9.754;2022-10-31T02:14:37;16.90;99.90
30534;DHT22;17318;52.390;9.754;2022-10-31T02:17:04;16.80;99.90
30534;DHT22;17318;52.390;9.754;2022-10-31T02:19:46;16.90;99.90
30534;DHT22;17318;52.390;9.754;2022-10-31T02:22:28;16.80;99.90
30534;DHT22;17318;52.390;9.754;2022-10-31T02:27:49;16.80;99.90
30534;DHT22;17318;52.390;9.754;2022-10-31T02:30:25;16.90;99.90
30534;DHT22;17318;52.390;9.754;2022-10-31T02:38:35;16.90;99.90
30534;DHT22;17318;52.390;9.754;2022-10-31T02:46:40;16.80;99.90
30534;DHT22;17318;52.390;9.754;2022-10-31T02:49:27;16.90;99.90
30534;DHT22;17318;52.390;9.754;2022-10-31T02:51:55;16.80;99.90
30534;DHT22;17318;52.390;9.754;2022-10-31T02:54:25;16.80;99.90
30534;DHT22;17318;52.390;9.754;2022-10-31T02:56:54;16.90;99.90
30534;DHT22;17318;52.390;9.754;2022-10-31T02:59:24;16.90;99.90
30534;DHT22;17318;52.390;9.754;2022-10-31T03:05:04;16.80;99.90
30534;DHT22;17318;52.390;9.754;2022-10-31T03:10:42;16.80;99.90
30534;DHT22;17318;52.390;9.754;2022-10-31T03:15:48;16.80;99.90
30534;DHT22;17318;52.390;9.754;2022-10-31T03:18:30;16.80;99.90
30534;DHT22;17318;52.390;9.754;2022-10-31T03:21:16;16.80;99.90
30534;DHT22;17318;52.390;9.754;2022-10-31T03:23:44;16.80;99.90
30534;DHT22;17318;52.390;9.754;2022-10-31T03:26:12;16.70;99.90
30534;DHT22;17318;52.390;9.754;2022-10-31T03:28:54;16.70;99.90
30534;DHT22;17318;52.390;9.754;2022-10-31T03:31:26;16.60;99.90
30534;DHT22;17318;52.390;9.754;2022-10-31T03:33:54;16.60;99.90
30534;DHT22;17318;52.390;9.754;2022-10-31T03:36:21;16.50;99.90
30534;DHT22;17318;52.390;9.754;2022-10-31T03:38:48;16.60;99.90
30534;DHT22;17318;52.390;9.754;2022-10-31T03:41:22;16.50;99.90
30534;DHT22;17318;52.390;9.754;2022-10-31T03:43:59;16.40;99.90
30534;DHT22;17318;52.390;9.754;2022-10-31T03:46:26;16.40;99.90
30534;DHT22;17318;52.390;9.754;2022-10-31T03:48:52;16.30;99.90
30534;DHT22;17318;52.390;9.754;2022-10-31T03:53:55;16.30;99.90
30534;DHT22;17318;52.390;9.754;2022-10-31T03:56:24;16.30;99.90
30534;DHT22;17318;52.390;9.754;2022-10-31T03:59:17;16.30;99.90
30534;DHT22;17318;52.390;9.754;2022-10-31T04:01:48;16.20;99.90
30534;DHT22;17318;52.390;9.754;2022-10-31T04:04:14;16.20;99.90
30534;DHT22;17318;52.390;9.754;2022-10-31T04:06:42;16.20;99.90
30534;DHT22;17318;52.390;9.754;2022-10-31T04:09:09;16.20;99.90
30534;DHT22;17318;52.390;9.754;2022-10-31T04:11:38;16.20;99.90
30534;DHT22;17318;52.390;9.754;2022-10-31T04:14:07;16.20;99.90
30534;DHT22;17318;52.390;9.754;2022-10-31T04:16:33;16.20;99.90
30534;DHT22;17318;52.390;9.754;2022-10-31T04:18:59;16.20;99.90
30534;DHT22;17318;52.390;9.754;2022-10-31T04:21:29;16.20;99.90
30534;DHT22;17318;52.390;9.754;2022-10-31T04:23:56;16.10;99.90
30534;DHT22;17318;52.390;9.754;2022-10-31T04:26:22;16.10;99.90
30534;DHT22;17318;52.390;9.754;2022-10-31T04:28:48;16.10;99.90
30534;DHT22;17318;52.390;9.754;2022-10-31T04:31:14;16.10;99.90
30534;DHT22;17318;52.390;9.754;2022-10-31T04:33:39;16.00;99.90
30534;DHT22;17318;52.390;9.754;2022-10-31T04:36:05;15.90;99.90
30534;DHT22;17318;52.390;9.754;2022-10-31T04:38:31;15.90;99.90
30534;DHT22;17318;52.390;9.754;2022-10-31T04:40:57;15.90;99.90
30534;DHT22;17318;52.390;9.754;2022-10-31T04:43:22;15.90;99.90
30534;DHT22;17318;52.390;9.754;2022-10-31T04:45:48;15.80;99.90
30534;DHT22;17318;52.390;9.754;2022-10-31T04:48:14;15.80;99.90
30534;DHT22;17318;52.390;9.754;2022-10-31T04:50:40;15.80;99.90
30534;DHT22;17318;52.390;9.754;2022-10-31T04:53:05;15.70;99.90
30534;DHT22;17318;52.390;9.754;2022-10-31T04:55:31;15.60;99.90
30534;DHT22;17318;52.390;9.754;2022-10-31T04:57:57;15.50;99.90
30534;DHT22;17318;52.390;9.754;2022-10-31T05:00:23;15.50;99.90
30534;DHT22;17318;52.390;9.754;2022-10-31T05:02:54;15.40;99.90
30534;DHT22;17318;52.390;9.754;2022-10-31T05:05:29;15.40;99.90
30534;DHT22;17318;52.390;9.754;2022-10-31T05:07:55;15.40;99.90
30534;DHT22;17318;52.390;9.754;2022-10-31T05:10:23;15.40;99.90
30534;DHT22;17318;52.390;9.754;2022-10-31T05:12:54;15.40;99.90
30534;DHT22;17318;52.390;9.754;2022-10-31T05:15:22;15.40;99.90
30534;DHT22;17318;52.390;9.754;2022-10-31T05:17:49;15.30;99.90
30534;DHT22;17318;52.390;9.754;2022-10-31T05:20:17;15.30;99.90
30534;DHT22;17318;52.390;9.754;2022-10-31T05:22:54;15.20;99.90
30534;DHT22;17318;52.390;9.754;2022-10-31T05:25:22;15.30;99.90
30534;DHT22;17318;52.390;9.754;2022-10-31T05:27:49;15.20;99.90
30534;DHT22;17318;52.390;9.754;2022-10-31T05:30:18;15.20;99.90
30534;DHT22;17318;52.390;9.754;2022-10-31T05:32:47;15.20;99.90
30534;DHT22;17318;52.390;9.754;2022-10-31T05:35:27;15.10;99.90
30534;DHT22;17318;52.390;9.754;2022-10-31T05:37:53;15.00;99.90
30534;DHT22;17318;52.390;9.754;2022-10-31T05:40:19;15.00;99.90
30534;DHT22;17318;52.390;9.754;2022-10-31T05:42:46;15.00;99.90
30534;DHT22;17318;52.390;9.754;2022-10-31T05:45:15;15.00;99.90
30534;DHT22;17318;52.390;9.754;2022-10-31T05:47:41;15.00;99.90
30534;DHT22;17318;52.390;9.754;2022-10-31T05:50:08;14.90;99.90
30534;DHT22;17318;52.390;9.754;2022-10-31T05:52:35;14.90;99.90
30534;DHT22;17318;52.390;9.754;2022-10-31T05:55:00;14.90;99.90
30534;DHT22;17318;52.390;9.754;2022-10-31T05:57:26;14.90;99.90
30534;DHT22;17318;52.390;9.754;2022-10-31T05:59:53;14.80;99.90
30534;DHT22;17318;52.390;9.754;2022-10-31T06:02:21;14.90;99.90
30534;DHT22;17318;52.390;9.754;2022-10-31T06:04:47;14.80;99.90
30534;DHT22;17318;52.390;9.754;2022-10-31T06:07:13;14.80;99.90
30534;DHT22;17318;52.390;9.754;2022-10-31T06:09:39;14.80;99.90
30534;DHT22;17318;52.390;9.754;2022-10-31T06:12:04;14.80;99.90
30534;DHT22;17318;52.390;9.754;2022-10-31T06:14:30;14.80;99.90
30534;DHT22;17318;52.390;9.754;2022-10-31T06:16:56;14.70;99.90
30534;DHT22;17318;52.390;9.754;2022-10-31T06:19:21;14.80;99.90
30534;DHT22;17318;52.390;9.754;2022-10-31T06:21:47;14.80;99.90
30534;DHT22;17318;52.390;9.754;2022-10-31T06:24:13;14.70;99.90
30534;DHT22;17318;52.390;9.754;2022-10-31T06:26:40;14.70;99.90
30534;DHT22;17318;52.390;9.754;2022-10-31T06:29:06;14.70;99.90
30534;DHT22;17318;52.390;9.754;2022-10-31T06:31:32;14.70;99.90
30534;DHT22;17318;52.390;9.754;2022-10-31T06:33:57;14.70;99.90
30534;DHT22;17318;52.390;9.754;2022-10-31T06:36:23;14.60;99.90
30534;DHT22;17318;52.390;9.754;2022-10-31T06:38:49;14.60;99.90
30534;DHT22;17318;52.390;9.754;2022-10-31T06:41:14;14.60;99.90
30534;DHT22;17318;52.390;9.754;2022-10-31T06:43:40;14.60;99.90
30534;DHT22;17318;52.390;9.754;2022-10-31T06:46:06;14.60;99.90
30534;DHT22;17318;52.390;9.754;2022-10-31T06:48:31;14.60;99.90
30534;DHT22;17318;52.390;9.754;2022-10-31T06:51:00;14.70;99.90
30534;DHT22;17318;52.390;9.754;2022-10-31T06:53:27;14.60;99.90
30534;DHT22;17318;52.390;9.754;2022-10-31T06:55:58;14.60;99.90
30534;DHT22;17318;52.390;9.754;2022-10-31T06:58:24;14.60;99.90
30534;DHT22;17318;52.390;9.754;2022-10-31T07:00:49;14.60;99.90
30534;DHT22;17318;52.390;9.754;2022-10-31T07:03:15;14.60;99.90
30534;DHT22;17318;52.390;9.754;2022-10-31T07:05:42;14.60;99.90
30534;DHT22;17318;52.390;9.754;2022-10-31T07:08:10;14.60;99.90
30534;DHT22;17318;52.390;9.754;2022-10-31T07:10:38;14.50;99.90
30534;DHT22;17318;52.390;9.754;2022-10-31T07:13:05;14.50;99.90
30534;DHT22;17318;52.390;9.754;2022-10-31T07:15:36;14.50;99.90
30534;DHT22;17318;52.390;9.754;2022-10-31T07:18:03;14.60;99.90
30534;DHT22;17318;52.390;9.754;2022-10-31T07:20:30;14.60;99.90
30534;DHT22;17318;52.390;9.754;2022-10-31T07:22:57;14.60;99.90
30534;DHT22;17318;52.390;9.754;2022-10-31T07:25:23;14.60;99.90
30534;DHT22;17318;52.390;9.754;2022-10-31T07:27:49;14.60;99.90
30534;DHT22;17318;52.390;9.754;2022-10-31T07:30:15;14.60;99.90
30534;DHT22;17318;52.390;9.754;2022-10-31T07:32:44;14.70;99.90
30534;DHT22;17318;52.390;9.754;2022-10-31T07:35:12;14.70;99.90
30534;DHT22;17318;52.390;9.754;2022-10-31T07:37:38;14.80;99.90
30534;DHT22;17318;52.390;9.754;2022-10-31T07:40:06;14.80;99.90
30534;DHT22;17318;52.390;9.754;2022-10-31T07:42:39;14.90;99.90
30534;DHT22;17318;52.390;9.754;2022-10-31T07:45:07;14.90;99.90
30534;DHT22;17318;52.390;9.754;2022-10-31T07:50:10;14.90;99.90
30534;DHT22;17318;52.390;9.754;2022-10-31T07:52:36;15.00;99.90
30534;DHT22;17318;52.390;9.754;2022-10-31T07:55:03;15.10;99.90
30534;DHT22;17318;52.390;9.754;2022-10-31T07:57:29;15.10;99.90
30534;DHT22;17318;52.390;9.754;2022-10-31T07:59:55;15.20;99.90
30534;DHT22;17318;52.390;9.754;2022-10-31T08:02:20;15.30;99.90
30534;DHT22;17318;52.390;9.754;2022-10-31T08:04:46;15.30;99.90
30534;DHT22;17318;52.390;9.754;2022-10-31T08:07:12;15.30;99.90
30534;DHT22;17318;52.390;9.754;2022-10-31T08:09:37;15.40;99.90
30534;DHT22;17318;52.390;9.754;2022-10-31T08:12:03;15.50;99.90
30534;DHT22;17318;52.390;9.754;2022-10-31T08:14:29;15.50;99.90
30534;DHT22;17318;52.390;9.754;2022-10-31T08:16:55;15.60;99.90
30534;DHT22;17318;52.390;9.754;2022-10-31T08:19:21;15.80;99.90
30534;DHT22;17318;52.390;9.754;2022-10-31T08:21:46;16.20;99.90
30534;DHT22;17318;52.390;9.754;2022-10-31T08:24:15;16.40;99.90
30534;DHT22;17318;52.390;9.754;2022-10-31T08:26:41;16.40;99.90
30534;DHT22;17318;52.390;9.754;2022-10-31T08:29:06;16.50;99.90
30534;DHT22;17318;52.390;9.754;2022-10-31T08:31:32;16.60;99.90
30534;DHT22;17318;52.390;9.754;2022-10-31T08:33:58;16.70;99.90
30534;DHT22;17318;52.390;9.754;2022-10-31T08:36:24;16.80;99.90
30534;DHT22;17318;52.390;9.754;2022-10-31T08:38:49;16.80;99.90
30534;DHT22;17318;52.390;9.754;2022-10-31T08:41:15;16.80;99.90
30534;DHT22;17318;52.390;9.754;2022-10-31T08:43:41;16.90;99.90
30534;DHT22;17318;52.390;9.754;2022-10-31T08:46:06;16.80;99.90
30534;DHT22;17318;52.390;9.754;2022-10-31T08:48:32;16.90;99.90
30534;DHT22;17318;52.390;9.754;2022-10-31T08:50:59;16.90;99.90
30534;DHT22;17318;52.390;9.754;2022-10-31T08:53:25;16.90;99.90
30534;DHT22;17318;52.390;9.754;2022-10-31T08:55:54;17.00;99.90
30534;DHT22;17318;52.390;9.754;2022-10-31T08:58:21;17.00;99.90
30534;DHT22;17318;52.390;9.754;2022-10-31T09:00:48;17.00;99.90
30534;DHT22;17318;52.390;9.754;2022-10-31T09:03:19;17.10;99.90
30534;DHT22;17318;52.390;9.754;2022-10-31T09:05:46;17.20;99.90
30534;DHT22;17318;52.390;9.754;2022-10-31T09:08:12;17.20;99.90
30534;DHT22;17318;52.390;9.754;2022-10-31T09:10:39;17.30;99.90
30534;DHT22;17318;52.390;9.754;2022-10-31T09:13:16;17.40;99.90
30534;DHT22;17318;52.390;9.754;2022-10-31T09:15:44;17.40;99.90
30534;DHT22;17318;52.390;9.754;2022-10-31T09:18:11;17.50;99.90
30534;DHT22;17318;52.390;9.754;2022-10-31T09:20:38;17.50;99.90
30534;DHT22;17318;52.390;9.754;2022-10-31T09:23:10;17.60;99.90
30534;DHT22;17318;52.390;9.754;2022-10-31T09:25:36;17.70;99.90
30534;DHT22;17318;52.390;9.754;2022-10-31T09:28:03;17.80;99.90
30534;DHT22;17318;52.390;9.754;2022-10-31T09:30:32;17.90;99.90
30534;DHT22;17318;52.390;9.754;2022-10-31T09:33:01;18.00;99.90
30534;DHT22;17318;52.390;9.754;2022-10-31T09:35:27;18.10;99.90
30534;DHT22;17318;52.390;9.754;2022-10-31T09:37:56;18.10;99.90
30534;DHT22;17318;52.390;9.754;2022-10-31T09:40:39;18.30;99.90
30534;DHT22;17318;52.390;9.754;2022-10-31T09:43:13;18.30;99.90
30534;DHT22;17318;52.390;9.754;2022-10-31T09:51:04;18.70;99.90
30534;DHT22;17318;52.390;9.754;2022-10-31T09:56:24;18.80;99.90
30534;DHT22;17318;52.390;9.754;2022-10-31T09:58:54;18.80;99.90
30534;DHT22;17318;52.390;9.754;2022-10-31T10:04:03;18.60;99.90
30534;DHT22;17318;52.390;9.754;2022-10-31T10:06:33;18.50;99.90
30534;DHT22;17318;52.390;9.754;2022-10-31T10:09:01;18.50;99.90
30534;DHT22;17318;52.390;9.754;2022-10-31T10:23:34;18.50;99.90
30534;DHT22;17318;52.390;9.754;2022-10-31T10:25:34;18.60;99.90
30534;DHT22;17318;52.390;9.754;2022-10-31T10:28:17;18.70;99.90
30534;DHT22;17318;52.390;9.754;2022-10-31T10:39:04;19.00;99.90
30534;DHT22;17318;52.390;9.754;2022-10-31T10:41:33;19.20;99.90
30534;DHT22;17318;52.390;9.754;2022-10-31T10:43:59;19.20;99.90
30534;DHT22;17318;52.390;9.754;2022-10-31T10:46:43;19.30;99.70
30534;DHT22;17318;52.390;9.754;2022-10-31T10:49:40;19.30;99.40
30534;DHT22;17318;52.390;9.754;2022-10-31T10:52:39;19.20;99.60
30534;DHT22;17318;52.390;9.754;2022-10-31T10:58:03;19.20;99.50
30534;DHT22;17318;52.390;9.754;2022-10-31T11:00:38;19.40;99.40
30534;DHT22;17318;52.390;9.754;2022-10-31T11:03:04;19.40;99.30
30534;DHT22;17318;52.390;9.754;2022-10-31T11:05:37;19.50;99.20
30534;DHT22;17318;52.390;9.754;2022-10-31T11:08:05;19.50;99.00
30534;DHT22;17318;52.390;9.754;2022-10-31T11:10:31;19.60;99.20
30534;DHT22;17318;52.390;9.754;2022-10-31T11:15:50;19.70;99.20
30534;DHT22;17318;52.390;9.754;2022-10-31T11:18:21;19.60;99.00
30534;DHT22;17318;52.390;9.754;2022-10-31T11:20:58;19.50;99.00
30534;DHT22;17318;52.390;9.754;2022-10-31T11:23:26;19.50;99.30
30534;DHT22;17318;52.390;9.754;2022-10-31T11:25:54;19.60;99.10
30534;DHT22;17318;52.390;9.754;2022-10-31T11:28:20;19.60;99.30
30534;DHT22;17318;52.390;9.754;2022-10-31T11:33:32;20.00;99.00
30534;DHT22;17318;52.390;9.754;2022-10-31T11:36:01;20.20;98.50
30534;DHT22;17318;52.390;9.754;2022-10-31T11:38:34;20.30;98.20
30534;DHT22;17318;52.390;9.754;2022-10-31T11:41:11;20.30;98.00
30534;DHT22;17318;52.390;9.754;2022-10-31T11:43:38;20.40;97.90
30534;DHT22;17318;52.390;9.754;2022-10-31T11:46:16;20.30;97.80
30534;DHT22;17318;52.390;9.754;2022-10-31T11:48:48;20.30;97.70
30534;DHT22;17318;52.390;9.754;2022-10-31T11:51:24;20.40;97.60
30534;DHT22;17318;52.390;9.754;2022-10-31T11:53:55;20.40;97.70
30534;DHT22;17318;52.390;9.754;2022-10-31T11:56:22;20.50;97.70
30534;DHT22;17318;52.390;9.754;2022-10-31T11:59:03;20.40;97.50
30534;DHT22;17318;52.390;9.754;2022-10-31T12:01:31;20.40;97.50
30534;DHT22;17318;52.390;9.754;2022-10-31T12:04:09;20.40;97.50
30534;DHT22;17318;52.390;9.754;2022-10-31T12:06:54;20.50;97.70
30534;DHT22;17318;52.390;9.754;2022-10-31T12:09:25;20.30;97.20
30534;DHT22;17318;52.390;9.754;2022-10-31T12:12:13;20.30;97.30
30534;DHT22;17318;52.390;9.754;2022-10-31T12:15:12;20.30;97.30
30534;DHT22;17318;52.390;9.754;2022-10-31T12:29:31;20.40;97.50
30534;DHT22;17318;52.390;9.754;2022-10-31T12:34:50;20.30;97.60
30534;DHT22;17318;52.390;9.754;2022-10-31T12:40:21;20.20;97.60
30534;DHT22;17318;52.390;9.754;2022-10-31T12:45:42;20.20;97.50
30534;DHT22;17318;52.390;9.754;2022-10-31T12:48:44;20.20;97.70
30534;DHT22;17318;52.390;9.754;2022-10-31T13:02:21;20.40;97.90
30534;DHT22;17318;52.390;9.754;2022-10-31T13:07:45;20.50;97.80
30534;DHT22;17318;52.390;9.754;2022-10-31T13:12:39;20.40;97.70
30534;DHT22;17318;52.390;9.754;2022-10-31T13:15:16;20.40;97.60
30534;DHT22;17318;52.390;9.754;2022-10-31T13:17:49;20.40;97.80
30534;DHT22;17318;52.390;9.754;2022-10-31T13:20:43;20.30;97.60
30534;DHT22;17318;52.390;9.754;2022-10-31T13:25:42;20.30;97.60
30534;DHT22;17318;52.390;9.754;2022-10-31T13:31:04;20.20;97.60
30534;DHT22;17318;52.390;9.754;2022-10-31T13:41:51;20.20;97.80
30534;DHT22;17318;52.390;9.754;2022-10-31T13:44:28;20.10;97.90
30534;DHT22;17318;52.390;9.754;2022-10-31T13:46:57;20.10;97.90
30534;DHT22;17318;52.390;9.754;2022-10-31T13:57:02;20.10;98.30
30534;DHT22;17318;52.390;9.754;2022-10-31T13:59:29;20.00;98.40
30534;DHT22;17318;52.390;9.754;2022-10-31T14:02:02;20.00;98.50
30534;DHT22;17318;52.390;9.754;2022-10-31T14:04:47;20.00;98.60
30534;DHT22;17318;52.390;9.754;2022-10-31T14:07:14;19.90;98.70
30534;DHT22;17318;52.390;9.754;2022-10-31T14:15:20;19.90;99.00
30534;DHT22;17318;52.390;9.754;2022-10-31T14:17:48;19.80;98.90
30534;DHT22;17318;52.390;9.754;2022-10-31T14:22:40;19.80;99.20
30534;DHT22;17318;52.390;9.754;2022-10-31T14:25:32;19.80;99.20
30534;DHT22;17318;52.390;9.754;2022-10-31T14:28:00;19.70;99.40
30534;DHT22;17318;52.390;9.754;2022-10-31T14:30:28;19.70;99.40
30534;DHT22;17318;52.390;9.754;2022-10-31T14:32:59;19.60;99.50
30534;DHT22;17318;52.390;9.754;2022-10-31T14:38:42;19.50;99.70
30534;DHT22;17318;52.390;9.754;2022-10-31T14:43:54;19.40;99.90
30534;DHT22;17318;52.390;9.754;2022-10-31T14:49:44;19.30;99.90
30534;DHT22;17318;52.390;9.754;2022-10-31T14:52:14;19.20;99.90
30534;DHT22;17318;52.390;9.754;2022-10-31T14:54:44;19.20;99.90
30534;DHT22;17318;52.390;9.754;2022-10-31T14:57:24;19.10;99.90
30534;DHT22;17318;52.390;9.754;2022-10-31T14:59:55;19.00;99.90
30534;DHT22;17318;52.390;9.754;2022-10-31T15:02:27;19.00;99.90
30534;DHT22;17318;52.390;9.754;2022-10-31T15:04:56;19.00;99.90
30534;DHT22;17318;52.390;9.754;2022-10-31T15:07:25;18.90;99.90
30534;DHT22;17318;52.390;9.754;2022-10-31T15:09:59;18.80;99.90
30534;DHT22;17318;52.390;9.754;2022-10-31T15:12:30;18.70;99.90
30534;DHT22;17318;52.390;9.754;2022-10-31T15:14:57;18.70;99.90
30534;DHT22;17318;52.390;9.754;2022-10-31T15:17:25;18.60;99.90
30534;DHT22;17318;52.390;9.754;2022-10-31T15:19:52;18.60;99.90
30534;DHT22;17318;52.390;9.754;2022-10-31T15:22:22;18.60;99.90
30534;DHT22;17318;52.390;9.754;2022-10-31T15:24:49;18.50;99.90
30534;DHT22;17318;52.390;9.754;2022-10-31T15:27:21;18.50;99.90
30534;DHT22;17318;52.390;9.754;2022-10-31T15:29:54;18.40;99.90
30534;DHT22;17318;52.390;9.754;2022-10-31T15:32:26;18.40;99.90
30534;DHT22;17318;52.390;9.754;2022-10-31T15:34:54;18.40;99.90
30534;DHT22;17318;52.390;9.754;2022-10-31T15:37:21;18.40;99.90
30534;DHT22;17318;52.390;9.754;2022-10-31T15:39:48;18.30;99.90
30534;DHT22;17318;52.390;9.754;2022-10-31T15:42:35;18.30;99.90
30534;DHT22;17318;52.390;9.754;2022-10-31T15:47:37;18.20;99.90
30534;DHT22;17318;52.390;9.754;2022-10-31T15:50:17;18.10;99.90
30534;DHT22;17318;52.390;9.754;2022-10-31T15:52:46;18.10;99.90
30534;DHT22;17318;52.390;9.754;2022-10-31T15:55:38;18.00;99.90
30534;DHT22;17318;52.390;9.754;2022-10-31T15:58:12;18.00;99.90
30534;DHT22;17318;52.390;9.754;2022-10-31T16:00:39;17.90;99.90
30534;DHT22;17318;52.390;9.754;2022-10-31T16:05:55;17.90;99.90
30534;DHT22;17318;52.390;9.754;2022-10-31T16:11:16;17.80;99.90
30534;DHT22;17318;52.390;9.754;2022-10-31T16:14:07;17.80;99.90
30534;DHT22;17318;52.390;9.754;2022-10-31T16:16:45;17.70;99.90
30534;DHT22;17318;52.390;9.754;2022-10-31T16:19:35;17.70;99.90
30534;DHT22;17318;52.390;9.754;2022-10-31T16:22:09;17.60;99.90
30534;DHT22;17318;52.390;9.754;2022-10-31T16:27:29;17.70;99.90
30534;DHT22;17318;52.390;9.754;2022-10-31T16:29:56;17.50;99.90
30534;DHT22;17318;52.390;9.754;2022-10-31T16:37:41;17.50;99.90
30534;DHT22;17318;52.390;9.754;2022-10-31T16:40:11;17.50;99.90
30534;DHT22;17318;52.390;9.754;2022-10-31T16:42:38;17.50;99.90
30534;DHT22;17318;52.390;9.754;2022-10-31T16:45:05;17.50;99.90
30534;DHT22;17318;52.390;9.754;2022-10-31T16:47:31;17.50;99.90
30534;DHT22;17318;52.390;9.754;2022-10-31T16:49:58;17.50;99.90
30534;DHT22;17318;52.390;9.754;2022-10-31T16:52:25;17.50;99.90
30534;DHT22;17318;52.390;9.754;2022-10-31T16:54:51;17.40;99.90
30534;DHT22;17318;52.390;9.754;2022-10-31T16:57:26;17.40;99.90
30534;DHT22;17318;52.390;9.754;2022-10-31T16:59:52;17.40;99.90
30534;DHT22;17318;52.390;9.754;2022-10-31T17:02:21;17.50;99.90
30534;DHT22;17318;52.390;9.754;2022-10-31T17:04:47;17.50;99.90
30534;DHT22;17318;52.390;9.754;2022-10-31T17:07:13;17.50;99.90
30534;DHT22;17318;52.390;9.754;2022-10-31T17:09:38;17.40;99.90
30534;DHT22;17318;52.390;9.754;2022-10-31T17:12:05;17.40;99.90
30534;DHT22;17318;52.390;9.754;2022-10-31T17:14:32;17.40;99.90
30534;DHT22;17318;52.390;9.754;2022-10-31T17:16:59;17.50;99.90
30534;DHT22;17318;52.390;9.754;2022-10-31T17:19:24;17.40;99.90
30534;DHT22;17318;52.390;9.754;2022-10-31T17:21:50;17.40;99.90
30534;DHT22;17318;52.390;9.754;2022-10-31T17:24:16;17.40;99.90
30534;DHT22;17318;52.390;9.754;2022-10-31T17:26:42;17.40;99.90
30534;DHT22;17318;52.390;9.754;2022-10-31T17:29:08;17.30;99.90
30534;DHT22;17318;52.390;9.754;2022-10-31T17:31:34;17.30;99.90
30534;DHT22;17318;52.390;9.754;2022-10-31T17:34:01;17.30;99.90
30534;DHT22;17318;52.390;9.754;2022-10-31T17:36:30;17.30;99.90
30534;DHT22;17318;52.390;9.754;2022-10-31T17:38:56;17.30;99.90
30534;DHT22;17318;52.390;9.754;2022-10-31T17:41:21;17.30;99.90
30534;DHT22;17318;52.390;9.754;2022-10-31T17:43:47;17.30;99.90
30534;DHT22;17318;52.390;9.754;2022-10-31T17:46:13;17.20;99.90
30534;DHT22;17318;52.390;9.754;2022-10-31T17:48:39;17.20;99.90
30534;DHT22;17318;52.390;9.754;2022-10-31T17:51:05;17.20;99.90
30534;DHT22;17318;52.390;9.754;2022-10-31T17:53:32;17.20;99.90
30534;DHT22;17318;52.390;9.754;2022-10-31T17:56:03;17.20;99.90
30534;DHT22;17318;52.390;9.754;2022-10-31T17:58:29;17.20;99.90
30534;DHT22;17318;52.390;9.754;2022-10-31T18:00:56;17.20;99.90
30534;DHT22;17318;52.390;9.754;2022-10-31T18:03:21;17.10;99.90
30534;DHT22;17318;52.390;9.754;2022-10-31T18:05:55;17.10;99.90
30534;DHT22;17318;52.390;9.754;2022-10-31T18:08:29;17.10;99.90
30534;DHT22;17318;52.390;9.754;2022-10-31T18:10:55;17.20;99.90
30534;DHT22;17318;52.390;9.754;2022-10-31T18:13:24;17.20;99.90
30534;DHT22;17318;52.390;9.754;2022-10-31T18:15:49;17.10;99.90
30534;DHT22;17318;52.390;9.754;2022-10-31T18:18:15;17.10;99.90
30534;DHT22;17318;52.390;9.754;2022-10-31T18:20:41;17.10;99.90
30534;DHT22;17318;52.390;9.754;2022-10-31T18:23:07;17.20;99.90
30534;DHT22;17318;52.390;9.754;2022-10-31T18:25:32;17.20;99.90